Time;durP1;ratioP1;P1;durP2;ratioP2;P2;SDS_P1;SDS_P2;PMS_P1;PMS_P2;Temp;Humidity;BMP_temperature;BMP_pressure;BME280_temperature;BME280_humidity;BME280_pressure;Samples;Min_cycle;Max_cycle;Signal;HPM_P1;HPM_P2
2023/06/08 00:01:08;;;;;;;5.20;3.10;;;;;;;-145.69;100.00;52115.66;5072225;28;20219;-77
2023/06/08 00:03:38;;;;;;;4.53;2.93;;;;;;;-145.69;100.00;52151.28;5074022;28;20613;-77
2023/06/08 00:06:04;;;;;;;3.93;3.10;;;;;;;-145.69;100.00;52113.66;5074354;28;20214;-78
2023/06/08 00:08:31;;;;;;;6.17;3.23;;;;;;;-145.69;100.00;52123.56;5074158;28;20198;-77
2023/06/08 00:10:57;;;;;;;6.43;2.83;;;;;;;-145.69;100.00;52113.66;5073440;28;20199;-77
2023/06/08 00:13:25;;;;;;;6.80;3.00;;;;;;;-145.69;100.00;52095.84;5073619;28;20191;-77
2023/06/08 00:15:53;;;;;;;5.73;3.40;;;;;;;-145.69;100.00;52103.78;5074058;28;20210;-76
2023/06/08 00:18:20;;;;;;;4.73;3.03;;;;;;;-145.69;100.00;52095.84;5071924;28;20576;-77
2023/06/08 00:20:47;;;;;;;5.07;3.47;;;;;;;-145.69;100.00;52103.78;5055238;28;20203;-77
2023/06/08 00:23:14;;;;;;;6.20;3.00;;;;;;;-145.69;100.00;52139.41;5053812;28;20223;-77
2023/06/08 00:25:41;;;;;;;4.97;3.07;;;;;;;-145.69;100.00;52101.78;5052629;28;20203;-77
2023/06/08 00:28:07;;;;;;;4.97;2.67;;;;;;;-145.69;100.00;52115.66;5053673;28;20207;-78
2023/06/08 00:30:35;;;;;;;5.43;2.80;;;;;;;-145.69;100.00;52103.78;5053724;28;20210;-81
2023/06/08 00:33:02;;;;;;;4.20;3.00;;;;;;;-145.69;100.00;52091.88;5053581;28;20666;-77
2023/06/08 00:35:28;;;;;;;5.57;3.20;;;;;;;-145.69;100.00;52091.88;5053532;28;20205;-77
2023/06/08 00:37:55;;;;;;;5.30;2.87;;;;;;;-145.69;100.00;52115.66;5053236;28;20558;-77
2023/06/08 00:40:21;;;;;;;4.97;3.30;;;;;;;-145.69;100.00;52097.84;5072561;28;20199;-77
2023/06/08 00:42:48;;;;;;;4.10;2.63;;;;;;;-145.69;100.00;52083.97;5073161;28;20234;-77
2023/06/08 00:45:14;;;;;;;5.57;3.00;;;;;;;-145.69;100.00;52076.03;5073586;28;20207;-77
2023/06/08 00:47:42;;;;;;;6.40;3.30;;;;;;;-145.69;100.00;52115.66;5073296;28;20238;-77
2023/06/08 00:50:10;;;;;;;4.07;2.83;;;;;;;-145.69;100.00;52115.66;5073124;28;20195;-77
2023/06/08 00:52:39;;;;;;;5.40;3.17;;;;;;;-145.69;100.00;52107.72;5073204;28;20639;-77
2023/06/08 00:55:07;;;;;;;4.27;3.07;;;;;;;-145.69;100.00;52115.66;5073108;28;20209;-77
2023/06/08 00:57:36;;;;;;;5.33;3.27;;;;;;;-145.69;100.00;52127.53;5073114;28;20199;-77
2023/06/08 01:00:05;;;;;;;9.10;3.37;;;;;;;-145.69;100.00;52097.84;5073267;28;20224;-78
2023/06/08 01:02:32;;;;;;;4.90;3.17;;;;;;;-145.69;100.00;52115.66;5073145;28;20227;-77
2023/06/08 01:05:02;;;;;;;6.83;3.20;;;;;;;-145.69;100.00;52097.84;5073230;28;20203;-77
2023/06/08 01:07:35;;;;;;;6.60;3.27;;;;;;;-145.69;100.00;52119.63;5072479;28;20206;-77
2023/06/08 01:10:09;;;;;;;5.13;3.50;;;;;;;-145.69;100.00;52095.84;5072828;28;20203;-77
2023/06/08 01:12:44;;;;;;;6.97;3.30;;;;;;;-145.69;100.00;52097.84;5072979;28;20213;-77
2023/06/08 01:15:14;;;;;;;4.80;3.20;;;;;;;-145.69;100.00;52103.78;5073060;28;20648;-77
2023/06/08 01:17:44;;;;;;;6.33;2.80;;;;;;;-145.69;100.00;52123.56;5073091;28;20210;-77
2023/06/08 01:20:29;;;;;;;4.80;3.23;;;;;;;-145.69;100.00;52107.72;5072972;28;20234;-77
2023/06/08 01:23:25;;;;;;;4.17;2.90;;;;;;;-145.69;100.00;52082.00;5072097;28;20226;-77
2023/06/08 01:25:55;;;;;;;7.40;3.90;;;;;;;-145.69;100.00;52127.53;5049759;28;20439;-76
2023/06/08 01:28:23;;;;;;;5.77;3.77;;;;;;;-145.69;100.00;52119.63;5052694;28;20238;-77
2023/06/08 01:30:50;;;;;;;5.40;3.27;;;;;;;-145.69;100.00;52135.47;5054365;28;20261;-77
2023/06/08 01:33:20;;;;;;;6.83;3.40;;;;;;;-145.69;100.00;52125.56;5080408;28;20205;-77
2023/06/08 01:35:54;;;;;;;5.17;3.40;;;;;;;-145.69;100.00;52127.53;5093116;28;20209;-77
2023/06/08 01:38:28;;;;;;;5.63;3.97;;;;;;;-145.69;100.00;52127.53;5092896;28;20198;-77
2023/06/08 01:41:01;;;;;;;5.10;3.43;;;;;;;-145.69;100.00;52091.88;5093114;28;20198;-76
2023/06/08 01:43:29;;;;;;;5.80;3.00;;;;;;;-145.69;100.00;52117.63;5091420;28;20287;-76
2023/06/08 01:46:00;;;;;;;4.83;3.60;;;;;;;-145.69;100.00;52139.41;5089557;28;20194;-76
2023/06/08 01:48:29;;;;;;;7.63;3.23;;;;;;;-145.69;100.00;52115.66;5092657;28;20240;-76
2023/06/08 01:50:57;;;;;;;6.17;3.60;;;;;;;-145.69;100.00;52121.59;5092517;28;20241;-76
2023/06/08 01:53:24;;;;;;;4.40;3.43;;;;;;;-145.69;100.00;52115.66;5089153;28;20202;-77
2023/06/08 01:55:51;;;;;;;4.90;3.53;;;;;;;-145.69;100.00;52115.66;5072452;28;20214;-76
2023/06/08 01:58:18;;;;;;;6.67;3.60;;;;;;;-145.69;100.00;52117.63;5072005;28;20194;-76
2023/06/08 02:00:45;;;;;;;7.03;3.73;;;;;;;-145.69;100.00;52111.69;5072682;28;20202;-76
2023/06/08 02:03:11;;;;;;;4.90;3.80;;;;;;;-145.69;100.00;52155.25;5072260;28;20237;-78
2023/06/08 02:05:38;;;;;;;5.47;3.70;;;;;;;-145.69;100.00;52131.50;5072154;28;20203;-77
2023/06/08 02:08:05;;;;;;;6.90;4.23;;;;;;;-145.69;100.00;52131.50;5072324;28;20563;-77
2023/06/08 02:10:31;;;;;;;5.87;3.53;;;;;;;-145.69;100.00;52141.41;5072106;28;20665;-77
2023/06/08 02:12:58;;;;;;;5.47;3.70;;;;;;;-145.69;100.00;52135.47;5072505;28;20263;-76
2023/06/08 02:15:26;;;;;;;8.90;3.33;;;;;;;-145.69;100.00;52103.78;5072120;28;20202;-77
2023/06/08 02:17:53;;;;;;;7.93;3.93;;;;;;;-145.69;100.00;52131.50;5065612;28;20684;-77
2023/06/08 02:20:19;;;;;;;5.17;3.43;;;;;;;-145.69;100.00;52129.50;5052306;28;20530;-77
2023/06/08 02:22:45;;;;;;;6.07;3.43;;;;;;;-145.69;100.00;52135.47;5052173;28;20227;-77
2023/06/08 02:25:12;;;;;;;8.97;4.03;;;;;;;-145.69;100.00;52127.53;5069241;28;20190;-77
2023/06/08 02:27:39;;;;;;;8.60;3.70;;;;;;;-145.69;100.00;52103.78;5072359;28;20203;-76
2023/06/08 02:30:08;;;;;;;5.27;3.70;;;;;;;-145.69;100.00;52135.47;5071829;28;20672;-77
2023/06/08 02:32:35;;;;;;;4.50;3.30;;;;;;;-145.69;100.00;52139.41;5072315;28;20207;-77
2023/06/08 02:35:04;;;;;;;4.67;3.30;;;;;;;-145.69;100.00;52115.66;5075596;28;20202;-77
2023/06/08 02:37:30;;;;;;;7.63;3.83;;;;;;;-145.69;100.00;52127.53;5076027;28;20332;-77
2023/06/08 02:39:57;;;;;;;5.03;3.37;;;;;;;-145.69;100.00;52091.88;5074985;28;20203;-76
2023/06/08 02:42:23;;;;;;;4.83;3.67;;;;;;;-145.69;100.00;52125.56;5074769;28;20280;-76
2023/06/08 02:44:50;;;;;;;6.40;3.37;;;;;;;-145.69;100.00;52123.56;5075838;28;20198;-76
2023/06/08 02:47:17;;;;;;;6.30;3.40;;;;;;;-145.69;100.00;52119.63;5075335;28;20229;-77
2023/06/08 02:49:45;;;;;;;5.83;3.27;;;;;;;-145.69;100.00;52117.63;5075381;28;20205;-77
2023/06/08 02:52:12;;;;;;;5.80;3.67;;;;;;;-145.69;100.00;52115.66;5075603;28;20219;-77
2023/06/08 02:54:38;;;;;;;4.60;3.07;;;;;;;-145.69;100.00;52143.38;5075023;28;20202;-77
2023/06/08 02:57:05;;;;;;;5.53;4.00;;;;;;;-145.69;100.00;52143.38;5075422;28;20195;-77
2023/06/08 02:59:32;;;;;;;5.97;3.97;;;;;;;-145.69;100.00;52149.31;5075518;28;20281;-78
2023/06/08 03:01:59;;;;;;;5.17;3.87;;;;;;;-145.69;100.00;52123.56;5075410;28;20234;-77
2023/06/08 03:04:27;;;;;;;5.77;3.90;;;;;;;-145.69;100.00;52131.50;5075623;28;20202;-77
2023/06/08 03:06:56;;;;;;;4.73;3.40;;;;;;;-145.69;100.00;52141.41;5075455;28;20211;-78
2023/06/08 03:09:22;;;;;;;4.97;3.70;;;;;;;-145.69;100.00;52131.50;5075325;28;20203;-77
2023/06/08 03:11:49;;;;;;;4.83;3.27;;;;;;;-145.69;100.00;52121.59;5073997;28;20940;-76
2023/06/08 03:14:16;;;;;;;6.60;3.70;;;;;;;-145.69;100.00;52115.66;5073036;28;20466;-77
2023/06/08 03:16:42;;;;;;;5.13;3.33;;;;;;;-145.69;100.00;52143.38;5075090;28;20569;-77
2023/06/08 03:19:09;;;;;;;5.70;3.03;;;;;;;-145.69;100.00;52133.47;5074841;28;20203;-77
2023/06/08 03:21:38;;;;;;;8.27;3.73;;;;;;;-145.69;100.00;52123.56;5075028;28;20257;-77
2023/06/08 03:24:06;;;;;;;6.07;4.00;;;;;;;-145.69;100.00;52131.50;5073673;28;20466;-78
2023/06/08 03:26:32;;;;;;;5.60;3.93;;;;;;;-145.69;100.00;52115.66;5075079;28;20198;-77
2023/06/08 03:28:59;;;;;;;7.60;3.53;;;;;;;-145.69;100.00;52119.63;5074863;28;20199;-77
2023/06/08 03:31:25;;;;;;;5.73;3.50;;;;;;;-145.69;100.00;52119.63;5074979;28;20199;-77
2023/06/08 03:33:52;;;;;;;5.17;3.50;;;;;;;-145.69;100.00;52131.50;5075047;28;20350;-77
2023/06/08 03:36:18;;;;;;;4.77;3.30;;;;;;;-145.69;100.00;52107.72;5074735;28;20666;-77
2023/06/08 03:38:45;;;;;;;5.77;3.50;;;;;;;-145.69;100.00;52099.81;5074906;28;20206;-77
2023/06/08 03:41:13;;;;;;;7.03;3.57;;;;;;;-145.69;100.00;52107.72;5074758;28;20604;-77
2023/06/08 03:43:40;;;;;;;7.57;3.97;;;;;;;-145.69;100.00;52131.50;5074217;28;20313;-77
2023/06/08 03:46:06;;;;;;;4.60;3.23;;;;;;;-145.69;100.00;52123.56;5073981;28;20238;-77
2023/06/08 03:48:33;;;;;;;6.40;3.30;;;;;;;-145.69;100.00;52105.75;5074419;28;20235;-77
2023/06/08 03:50:59;;;;;;;5.00;3.63;;;;;;;-145.69;100.00;52123.56;5074585;28;20199;-77
2023/06/08 03:53:26;;;;;;;5.23;3.53;;;;;;;-145.69;100.00;52147.34;5074196;28;20191;-77
2023/06/08 03:55:53;;;;;;;6.63;3.23;;;;;;;-145.69;100.00;52147.34;5074338;28;20649;-77
2023/06/08 03:58:21;;;;;;;7.67;3.20;;;;;;;-145.69;100.00;52153.28;5074444;28;20407;-76
2023/06/08 04:00:49;;;;;;;9.30;3.30;;;;;;;-145.69;100.00;52127.53;5074441;28;20209;-77
2023/06/08 04:03:15;;;;;;;5.33;3.33;;;;;;;-145.69;100.00;52127.53;5072134;28;20226;-77
2023/06/08 04:05:42;;;;;;;6.67;3.37;;;;;;;-145.69;100.00;52139.41;5070439;28;20646;-77
2023/06/08 04:08:08;;;;;;;5.77;3.47;;;;;;;-145.69;100.00;52141.41;5072861;28;20209;-78
2023/06/08 04:10:35;;;;;;;5.40;3.43;;;;;;;-145.69;100.00;52115.66;5070580;28;20257;-77
2023/06/08 04:13:01;;;;;;;6.67;3.63;;;;;;;-145.69;100.00;52113.66;5073705;28;20205;-77
2023/06/08 04:15:29;;;;;;;7.83;3.37;;;;;;;-145.69;100.00;52147.34;5071829;28;20207;-77
2023/06/08 04:17:55;;;;;;;11.67;3.60;;;;;;;-145.69;100.00;52137.44;5074096;28;20256;-77
2023/06/08 04:20:22;;;;;;;6.30;3.27;;;;;;;-145.69;100.00;52117.63;5074011;28;20202;-77
2023/06/08 04:22:49;;;;;;;5.30;3.17;;;;;;;-145.69;100.00;52157.25;5073893;28;20271;-77
2023/06/08 04:25:15;;;;;;;7.60;3.30;;;;;;;-145.69;100.00;52115.66;5073774;28;20199;-76
2023/06/08 04:27:42;;;;;;;5.73;3.60;;;;;;;-145.69;100.00;52125.56;5073714;28;20285;-77
2023/06/08 04:30:09;;;;;;;5.43;3.37;;;;;;;-145.69;100.00;52139.41;5073615;28;20711;-78
2023/06/08 04:32:37;;;;;;;4.70;3.30;;;;;;;-145.69;100.00;52105.75;5073919;28;20206;-78
2023/06/08 04:35:04;;;;;;;5.43;3.50;;;;;;;-145.69;100.00;52139.41;5073489;28;20630;-77
2023/06/08 04:37:32;;;;;;;12.17;3.20;;;;;;;-145.69;100.00;52129.50;5072940;28;20206;-77
2023/06/08 04:39:58;;;;;;;4.50;3.00;;;;;;;-145.69;100.00;52109.72;5073323;28;20345;-77
2023/06/08 04:42:25;;;;;;;6.27;3.53;;;;;;;-145.69;100.00;52111.69;5073647;28;20202;-77
2023/06/08 04:44:51;;;;;;;5.83;3.23;;;;;;;-145.69;100.00;52105.75;5073412;28;20331;-77
2023/06/08 04:47:18;;;;;;;4.87;3.20;;;;;;;-145.69;100.00;52119.63;5073487;28;20226;-78
2023/06/08 04:49:47;;;;;;;5.43;3.30;;;;;;;-145.69;100.00;52123.56;5073249;28;20739;-77
2023/06/08 04:52:15;;;;;;;5.37;3.10;;;;;;;-145.69;100.00;52115.66;5073359;28;20199;-77
2023/06/08 04:54:41;;;;;;;4.90;3.10;;;;;;;-145.69;100.00;52123.56;5072799;28;20268;-77
2023/06/08 04:57:09;;;;;;;5.80;3.93;;;;;;;-145.69;100.00;52165.16;5072894;28;20543;-76
2023/06/08 04:59:36;;;;;;;5.47;3.30;;;;;;;-145.69;100.00;52147.34;5073291;28;20293;-77
2023/06/08 05:02:02;;;;;;;4.73;3.33;;;;;;;-145.69;100.00;52097.84;5073244;28;20684;-77
2023/06/08 05:04:28;;;;;;;5.33;3.10;;;;;;;-145.69;100.00;52131.50;5073168;28;20226;-77
2023/06/08 05:06:56;;;;;;;6.07;3.23;;;;;;;-145.69;100.00;52131.50;5073046;28;20199;-77
2023/06/08 05:09:23;;;;;;;5.07;3.00;;;;;;;-145.69;100.00;52115.66;5072935;28;20202;-77
2023/06/08 05:11:49;;;;;;;6.37;3.00;;;;;;;-145.69;100.00;52139.41;5073123;28;20225;-78
2023/06/08 05:14:16;;;;;;;3.88;3.10;;;;;;;-145.69;100.00;52091.88;5073167;28;20202;-77
2023/06/08 05:16:42;;;;;;;7.40;3.22;;;;;;;-145.69;100.00;52103.78;5072443;28;20199;-77
2023/06/08 05:19:08;;;;;;;5.68;3.22;;;;;;;-145.69;100.00;52103.78;5073106;28;20199;-77
2023/06/08 05:21:36;;;;;;;5.25;3.47;;;;;;;-145.69;100.00;52123.56;5072785;28;20198;-78
2023/06/08 05:24:05;;;;;;;4.53;3.28;;;;;;;-145.69;100.00;52129.50;5072855;28;20304;-78
2023/06/08 05:26:31;;;;;;;6.07;3.03;;;;;;;-145.69;100.00;52072.09;5072833;28;20205;-78
2023/06/08 05:28:58;;;;;;;4.72;2.90;;;;;;;-145.69;100.00;52103.78;5072971;28;20228;-78
2023/06/08 05:31:24;;;;;;;5.22;2.95;;;;;;;-145.69;100.00;52139.41;5072881;28;20199;-78
2023/06/08 05:33:50;;;;;;;5.43;2.97;;;;;;;-145.69;100.00;52099.81;5072762;28;20202;-78
2023/06/08 05:36:17;;;;;;;5.05;3.17;;;;;;;-145.69;100.00;52087.94;5072731;28;20203;-78
2023/06/08 05:38:43;;;;;;;6.38;3.00;;;;;;;-145.69;100.00;52107.72;5072478;28;20205;-78
2023/06/08 05:41:11;;;;;;;4.07;2.75;;;;;;;-145.69;100.00;52052.28;5072735;28;20535;-78
2023/06/08 05:43:38;;;;;;;5.07;3.50;;;;;;;-145.69;100.00;52099.81;5072629;28;20253;-77
2023/06/08 05:46:04;;;;;;;6.22;3.00;;;;;;;-145.69;100.00;52095.84;5072692;28;20206;-77
2023/06/08 05:48:30;;;;;;;4.38;3.30;;;;;;;-145.69;100.00;52064.16;5072482;28;20231;-78
2023/06/08 05:50:57;;;;;;;5.55;2.97;;;;;;;-145.69;100.00;52060.22;5072258;28;20198;-77
2023/06/08 05:53:23;;;;;;;5.28;2.80;;;;;;;-145.69;100.00;52068.13;5072786;28;20206;-77
2023/06/08 05:55:50;;;;;;;4.88;3.20;;;;;;;-145.69;100.00;52072.09;5072582;28;20198;-78
2023/06/08 05:58:18;;;;;;;4.57;3.13;;;;;;;-145.69;100.00;52123.56;5072250;28;20205;-78
2023/06/08 06:00:45;;;;;;;5.13;3.00;;;;;;;-145.69;100.00;52082.00;5072174;28;20524;-78
2023/06/08 06:03:11;;;;;;;6.57;2.80;;;;;;;-145.69;100.00;52078.03;5072178;28;20219;-78
2023/06/08 06:05:37;;;;;;;4.70;2.70;;;;;;;-145.69;98.21;52052.28;5070467;28;20201;-78
2023/06/08 06:08:07;;;;;;;5.38;2.63;;;;;;;-145.69;99.73;52052.28;5054086;28;20244;-78
2023/06/08 06:10:33;;;;;;;5.82;2.50;;;;;;;-145.69;94.91;52030.50;5056424;28;20290;-79
2023/06/08 06:13:00;;;;;;;4.93;2.50;;;;;;;-145.69;94.16;52052.28;5056348;28;20265;-78
2023/06/08 06:15:28;;;;;;;3.33;2.50;;;;;;;-145.69;93.92;52028.53;5056432;28;20203;-78
2023/06/08 06:17:55;;;;;;;3.65;2.75;;;;;;;-145.69;89.24;52022.59;5056105;28;20203;-78
2023/06/08 06:20:22;;;;;;;6.07;2.70;;;;;;;-145.69;89.98;52064.16;5056327;28;20685;-78
2023/06/08 06:22:48;;;;;;;3.45;2.30;;;;;;;-145.69;86.20;52052.28;5072502;28;20252;-78
2023/06/08 06:25:15;;;;;;;4.38;2.80;;;;;;;-145.69;80.55;52056.25;5076008;28;20213;-78
2023/06/08 06:27:42;;;;;;;3.67;2.53;;;;;;;-145.69;78.40;52026.53;5075599;28;20252;-79
2023/06/08 06:30:09;;;;;;;5.18;2.38;;;;;;;-145.69;75.33;52012.69;5076093;28;20289;-78
2023/06/08 06:32:37;;;;;;;4.35;2.72;;;;;;;-145.69;76.00;52004.75;5075396;28;20198;-78
2023/06/08 06:35:04;;;;;;;5.60;2.75;;;;;;;-145.69;75.44;52014.66;5075549;28;20190;-78
2023/06/08 06:37:34;;;;;;;11.23;3.15;;;;;;;-145.69;73.40;52028.53;5075060;28;20820;-77
2023/06/08 06:40:00;;;;;;;4.53;2.88;;;;;;;-145.69;76.44;52018.63;5071187;28;20190;-78
2023/06/08 06:42:27;;;;;;;3.78;2.55;;;;;;;-145.69;75.03;52024.56;5075482;28;20202;-78
2023/06/08 06:44:53;;;;;;;3.47;2.40;;;;;;;-145.69;71.18;51992.88;5075669;28;20230;-78
2023/06/08 06:47:20;;;;;;;6.75;2.78;;;;;;;-145.69;74.46;52044.38;5075131;28;20233;-78
2023/06/08 06:49:48;;;;;;;4.63;2.70;;;;;;;-145.69;71.06;51981.00;5075455;28;20249;-78
2023/06/08 06:52:14;;;;;;;3.95;2.70;;;;;;;-145.69;70.55;52004.75;5075641;28;20565;-78
2023/06/08 06:54:41;;;;;;;4.32;2.83;;;;;;;-145.69;69.42;51988.91;5075703;28;20206;-78
2023/06/08 06:57:08;;;;;;;5.13;2.65;;;;;;;-145.69;70.13;51986.94;5075528;28;20589;-78
2023/06/08 06:59:34;;;;;;;6.50;2.70;;;;;;;-145.69;70.26;51965.16;5075395;28;20293;-78
2023/06/08 07:02:02;;;;;;;7.80;2.58;;;;;;;-145.69;69.33;52020.59;5075706;28;20275;-78
2023/06/08 07:04:31;;;;;;;6.13;3.05;;;;;;;-145.69;66.15;51994.88;5075068;28;20703;-77
2023/06/08 07:06:59;;;;;;;4.38;2.58;;;;;;;-145.69;68.27;52004.75;5075238;28;20232;-78
2023/06/08 07:09:26;;;;;;;3.40;2.55;;;;;;;-145.69;68.20;51998.81;5075268;28;20206;-78
2023/06/08 07:11:53;;;;;;;4.90;2.95;;;;;;;-145.69;62.53;52004.75;5075333;28;20641;-78
2023/06/08 07:14:19;;;;;;;4.10;2.80;;;;;;;-145.69;64.96;52004.75;5075042;28;20702;-78
2023/06/08 07:16:45;;;;;;;8.38;2.88;;;;;;;-145.69;69.48;51990.91;5075255;28;20681;-78
2023/06/08 07:19:12;;;;;;;4.65;2.80;;;;;;;-145.69;60.94;51979.03;5075262;28;20195;-78
2023/06/08 07:21:40;;;;;;;3.30;2.60;;;;;;;-145.69;64.03;51961.19;5075319;28;20248;-78
2023/06/08 07:24:08;;;;;;;6.45;2.53;;;;;;;-145.69;65.63;51975.06;5074933;28;20634;-78
2023/06/08 07:26:35;;;;;;;5.05;2.80;;;;;;;-145.69;65.21;51947.34;5074883;28;20661;-78
2023/06/08 07:29:02;;;;;;;5.63;3.50;;;;;;;-145.69;58.66;51967.13;5074950;28;20546;-77
2023/06/08 07:31:30;;;;;;;6.05;3.55;;;;;;;-145.69;49.82;51961.19;5074823;28;20199;-78
2023/06/08 07:33:57;;;;;;;4.95;2.95;;;;;;;-145.69;59.69;51984.97;5074881;28;20226;-78
2023/06/08 07:36:23;;;;;;;4.40;2.80;;;;;;;-145.69;53.08;51975.06;5074914;28;20203;-79
2023/06/08 07:38:50;;;;;;;6.95;3.40;;;;;;;-145.69;48.05;51969.13;5074891;28;20217;-78
2023/06/08 07:41:18;;;;;;;6.53;3.25;;;;;;;-145.69;46.34;51969.13;5074356;28;20622;-76
2023/06/08 07:43:44;;;;;;;5.65;3.72;;;;;;;-145.69;45.08;51901.78;5074357;28;20693;-78
2023/06/08 07:46:11;;;;;;;6.53;3.90;;;;;;;-145.69;45.96;51933.47;5074554;28;20210;-78
2023/06/08 07:48:38;;;;;;;6.47;3.38;;;;;;;-145.69;47.36;51945.34;5074571;28;20234;-78
2023/06/08 07:51:04;;;;;;;7.53;3.97;;;;;;;-145.69;43.02;51971.09;5074356;28;20660;-78
2023/06/08 07:53:35;;;;;;;5.20;3.50;;;;;;;-145.69;44.81;51933.47;5074404;28;20557;-78
2023/06/08 07:56:02;;;;;;;7.63;4.13;;;;;;;-145.69;41.59;51949.31;5074328;28;20313;-79
2023/06/08 07:58:31;;;;;;;5.93;3.78;;;;;;;-145.69;43.53;51921.59;5073879;28;20248;-79
2023/06/08 08:00:57;;;;;;;4.97;3.47;;;;;;;-145.69;46.46;51933.47;5074032;28;20328;-78
2023/06/08 08:03:24;;;;;;;4.90;3.60;;;;;;;-145.69;41.55;51911.69;5069899;28;20194;-78
2023/06/08 08:05:50;;;;;;;5.40;3.40;;;;;;;-145.69;42.33;51921.59;5073917;28;20203;-79
2023/06/08 08:08:17;;;;;;;7.25;3.38;;;;;;;-145.69;40.52;51925.56;5073884;28;20194;-80
2023/06/08 08:10:44;;;;;;;10.27;3.88;;;;;;;-145.69;40.34;51919.63;5074310;28;20264;-78
2023/06/08 08:13:12;;;;;;;10.13;3.88;;;;;;;-145.69;40.57;51941.41;5073926;28;20209;-79
2023/06/08 08:15:40;;;;;;;5.80;3.50;;;;;;;-145.69;39.88;51913.69;5074103;28;20245;-83
2023/06/08 08:18:07;;;;;;;8.02;3.30;;;;;;;-145.69;41.07;51885.94;5075166;28;20202;-85
2023/06/08 08:20:34;;;;;;;6.28;3.55;;;;;;;-145.69;39.40;51909.72;5074548;28;20260;-84
2023/06/08 08:23:00;;;;;;;5.95;3.58;;;;;;;-145.69;39.64;51925.56;5073967;28;20198;-83
2023/06/08 08:25:27;;;;;;;5.55;3.25;;;;;;;-145.69;39.42;51925.56;5074052;28;20284;-84
2023/06/08 08:27:54;;;;;;;5.07;3.60;;;;;;;-145.69;39.67;51893.88;5073927;28;20206;-81
2023/06/08 08:30:20;;;;;;;8.50;3.60;;;;;;;-145.69;39.09;51882.00;5073463;28;20230;-81
2023/06/08 08:32:48;;;;;;;6.68;3.58;;;;;;;-145.69;40.22;51899.81;5073416;28;20203;-80
2023/06/08 08:35:15;;;;;;;5.00;2.72;;;;;;;-145.69;38.32;51897.84;5073686;28;20209;-79
2023/06/08 08:37:42;;;;;;;5.50;3.47;;;;;;;-145.69;36.06;51885.94;5073390;28;20198;-78
2023/06/08 08:40:11;;;;;;;4.75;3.25;;;;;;;-145.69;36.57;51889.91;5073565;28;20195;-81
2023/06/08 08:42:44;;;;;;;5.80;3.40;;;;;;;-145.69;36.79;51885.94;5073702;28;20562;-81
2023/06/08 08:45:13;;;;;;;7.57;3.20;;;;;;;-145.69;36.06;51883.97;5068379;28;20226;-83
2023/06/08 08:47:40;;;;;;;8.73;3.65;;;;;;;-145.69;35.06;51842.38;5053387;28;20246;-80
2023/06/08 08:50:16;;;;;;;8.27;3.50;;;;;;;-145.69;33.96;51882.00;5053064;28;20654;-85
2023/06/08 08:52:45;;;;;;;5.38;3.45;;;;;;;-145.69;35.03;51876.06;5054322;28;20199;-84
2023/06/08 08:55:12;;;;;;;6.40;3.58;;;;;;;-145.69;33.33;51852.28;5063634;28;20248;-80
2023/06/08 08:57:39;;;;;;;7.60;3.50;;;;;;;-145.69;34.50;51832.50;5074232;28;20720;-84
2023/06/08 09:00:09;;;;;;;7.70;3.58;;;;;;;-145.69;34.65;51862.19;5073897;28;20557;-84
2023/06/08 09:02:36;;;;;;;5.35;3.53;;;;;;;-145.69;35.70;51856.25;5073348;28;20195;-80
2023/06/08 09:05:05;;;;;;;8.13;3.28;;;;;;;-145.69;34.31;51862.19;5072785;28;20322;-83
2023/06/08 09:07:33;;;;;;;5.15;3.17;;;;;;;-145.69;34.09;51842.38;5072992;28;20203;-82
2023/06/08 09:10:13;;;;;;;9.27;2.72;;;;;;;-145.69;33.30;51836.44;5072420;28;20221;-82
2023/06/08 09:12:39;;;;;;;5.15;3.28;;;;;;;-145.69;33.80;51858.22;5073019;28;20256;-80
2023/06/08 09:15:08;;;;;;;5.72;2.95;;;;;;;-145.69;33.99;51826.56;5072824;28;20199;-80
2023/06/08 09:17:38;;;;;;;5.00;3.20;;;;;;;-145.69;33.41;51830.50;5073084;28;20293;-83
2023/06/08 09:20:07;;;;;;;4.50;3.25;;;;;;;-145.69;34.24;51826.56;5072542;28;20657;-84
2023/06/08 09:22:36;;;;;;;4.50;2.88;;;;;;;-145.69;31.34;51854.28;5072004;28;20202;-83
2023/06/08 09:25:03;;;;;;;4.47;3.10;;;;;;;-145.69;32.15;51882.00;5073553;28;20226;-82
2023/06/08 09:27:30;;;;;;;7.03;3.50;;;;;;;-145.69;32.64;51897.84;5072971;28;20201;-83
2023/06/08 09:29:57;;;;;;;5.95;3.60;;;;;;;-145.69;32.50;51878.03;5072754;28;20577;-83
2023/06/08 09:32:31;;;;;;;5.00;3.28;;;;;;;-145.69;33.48;51874.06;5073354;28;20289;-84
2023/06/08 09:35:01;;;;;;;4.93;3.25;;;;;;;-145.69;34.03;51913.69;5073260;28;20198;-83
2023/06/08 09:37:29;;;;;;;5.53;3.20;;;;;;;-145.69;38.57;51913.69;5073123;28;20198;-80
2023/06/08 09:39:58;;;;;;;5.90;3.08;;;;;;;-145.69;42.72;51907.72;5071929;28;20206;-78
2023/06/08 09:42:40;;;;;;;5.72;3.60;;;;;;;-145.69;51.13;51927.53;5073138;28;20198;-79
2023/06/08 09:45:13;;;;;;;7.18;4.03;;;;;;;-145.69;56.47;51927.53;5076801;28;20225;-78
2023/06/08 09:47:40;;;;;;;8.93;4.13;;;;;;;-145.69;96.41;51963.19;5076473;28;20262;-78
2023/06/08 09:50:08;;;;;;;9.68;4.53;;;;;;;-145.69;81.57;51981.00;5077259;28;20669;-80
2023/06/08 09:52:36;;;;;;;8.02;4.28;;;;;;;-145.69;96.60;51996.84;5076669;28;20213;-77
2023/06/08 09:55:06;;;;;;;10.63;5.50;;;;;;;-145.69;100.00;52040.41;5076616;28;20199;-76
2023/06/08 09:57:35;;;;;;;15.63;6.57;;;;;;;-145.69;100.00;52032.47;5075934;28;20260;-75
2023/06/08 10:00:14;;;;;;;23.67;6.28;;;;;;;-145.69;100.00;61773.88;5076224;28;20209;-75
2023/06/08 10:02:47;;;;;;;18.30;7.53;;;;;;;-145.69;100.00;61773.88;5061945;28;20735;-77
2023/06/08 10:05:17;;;;;;;16.58;8.00;;;;;;;-145.69;100.00;61773.88;5075711;28;20574;-77
2023/06/08 10:07:46;;;;;;;13.52;6.90;;;;;;;-145.69;nan;52050.31;5076009;28;20202;-77
2023/06/08 10:10:21;;;;;;;16.45;9.38;;;;;;;-145.69;nan;52093.88;5075995;28;20661;-76
2023/06/08 10:12:48;;;;;;;19.77;10.85;;;;;;;-145.69;nan;52058.22;5075051;28;20552;-77
2023/06/08 10:15:15;;;;;;;15.88;10.82;;;;;;;-145.69;nan;52046.34;5076226;28;20558;-77
2023/06/08 10:17:43;;;;;;;25.90;14.20;;;;;;;-145.69;nan;52066.16;5074833;28;20224;-77
2023/06/08 10:20:12;;;;;;;28.02;14.75;;;;;;;-145.69;nan;52062.19;5055684;28;20203;-77
2023/06/08 10:22:40;;;;;;;32.08;18.85;;;;;;;-145.69;100.00;61773.88;5056013;28;20257;-77
2023/06/08 10:25:09;;;;;;;27.75;17.25;;;;;;;-145.69;100.00;61773.88;5056078;28;20227;-75
2023/06/08 10:27:36;;;;;;;34.42;17.15;;;;;;;-145.69;100.00;61773.88;5055777;28;20249;-76
2023/06/08 10:30:05;;;;;;;30.60;18.23;;;;;;;-145.69;nan;52062.19;5055156;28;20681;-77
2023/06/08 10:32:32;;;;;;;24.60;16.15;;;;;;;-145.69;nan;52068.13;5073312;28;20202;-75
2023/06/08 10:35:03;;;;;;;25.40;13.70;;;;;;;-145.69;100.00;61773.88;5075489;28;20198;-76
2023/06/08 10:37:30;;;;;;;19.58;12.65;;;;;;;-145.69;100.00;61773.88;5075931;28;20657;-75
2023/06/08 10:39:59;;;;;;;22.92;12.30;;;;;;;-145.69;100.00;61773.88;5075945;28;20203;-81
2023/06/08 10:42:26;;;;;;;16.90;11.18;;;;;;;-145.69;100.00;61773.88;5075800;28;20205;-76
2023/06/08 10:44:58;;;;;;;20.52;10.43;;;;;;;-145.69;100.00;61773.88;5075516;28;20233;-76
2023/06/08 10:47:25;;;;;;;17.02;9.48;;;;;;;-145.69;100.00;61773.88;5075207;28;20313;-77
2023/06/08 10:49:56;;;;;;;15.45;10.45;;;;;;;-145.69;100.00;61773.88;5075122;28;20566;-77
2023/06/08 10:52:24;;;;;;;13.77;9.05;;;;;;;-145.69;100.00;61773.88;5075576;28;20226;-77
2023/06/08 10:54:55;;;;;;;13.00;8.75;;;;;;;-145.69;nan;52042.38;5075044;28;20203;-77
2023/06/08 10:57:39;;;;;;;12.60;7.18;;;;;;;-145.69;100.00;61773.88;5075328;28;20218;-77
2023/06/08 11:00:43;;;;;;;10.80;7.00;;;;;;;-145.69;nan;52004.75;5075117;28;20260;-78
2023/06/08 11:03:11;;;;;;;9.07;5.78;;;;;;;-145.69;nan;52004.75;5075004;28;20565;-77
2023/06/08 11:05:41;;;;;;;13.10;6.47;;;;;;;-145.69;nan;51984.97;5074788;28;20254;-77
2023/06/08 11:08:08;;;;;;;7.35;5.25;;;;;;;-145.69;nan;51986.94;5074796;28;20570;-77
2023/06/08 11:10:36;;;;;;;8.85;4.80;;;;;;;-145.69;nan;51949.31;5075061;28;20745;-77
2023/06/08 11:13:08;;;;;;;8.38;5.50;;;;;;;-145.69;nan;51963.19;5075004;28;20612;-78
2023/06/08 11:15:44;;;;;;;8.27;5.85;;;;;;;-145.69;nan;51979.03;5074544;28;20442;-77